Time;durP1;ratioP1;P1;durP2;ratioP2;P2;SDS_P1;SDS_P2;PMS_P1;PMS_P2;Temp;Humidity;BMP_temperature;BMP_pressure;BME280_temperature;BME280_humidity;BME280_pressure;Samples;Min_cycle;Max_cycle;Signal;HPM_P1;HPM_P2
2022/08/11 00:01:12;;;;;;;8.20;7.40;;;;;;;;;;5093165;28;20099;-78
2022/08/11 00:03:42;;;;;;;7.80;7.00;;;;;;;;;;5093024;28;20583;-79
2022/08/11 00:06:09;;;;;;;8.55;7.38;;;;;;;;;;5091771;28;20374;-79
2022/08/11 00:08:37;;;;;;;8.85;7.85;;;;;;;;;;5093010;28;20035;-79
2022/08/11 00:11:07;;;;;;;8.10;7.22;;;;;;;;;;5092999;28;20375;-78
2022/08/11 00:13:37;;;;;;;7.57;6.78;;;;;;;;;;5092965;28;20048;-77
2022/08/11 00:16:04;;;;;;;8.00;7.20;;;;;;;;;;5092838;28;20382;-79
2022/08/11 00:18:39;;;;;;;8.57;7.78;;;;;;;;;;5092879;28;20498;-80
2022/08/11 00:21:05;;;;;;;9.82;8.23;;;;;;;;;;5092640;28;20371;-78
2022/08/11 00:23:31;;;;;;;9.68;8.77;;;;;;;;;;5092738;28;20042;-79
2022/08/11 00:25:58;;;;;;;8.07;7.38;;;;;;;;;;5092645;28;20047;-79
2022/08/11 00:28:29;;;;;;;8.43;7.63;;;;;;;;;;5092922;28;20103;-79
2022/08/11 00:30:57;;;;;;;7.90;7.20;;;;;;;;;;5092559;28;20047;-79
2022/08/11 00:33:24;;;;;;;8.25;7.55;;;;;;;;;;5092694;28;20089;-79
2022/08/11 00:35:51;;;;;;;9.90;8.07;;;;;;;;;;5092605;28;20534;-78
2022/08/11 00:38:17;;;;;;;8.20;7.43;;;;;;;;;;5092622;28;20032;-79
2022/08/11 00:40:45;;;;;;;9.32;8.48;;;;;;;;;;5092725;28;20028;-80
2022/08/11 00:43:29;;;;;;;8.20;7.50;;;;;;;;;;5092343;28;20028;-79
2022/08/11 00:45:55;;;;;;;;;;;;;;;;;;5092631;28;20039;-79
2022/08/11 00:48:40;;;;;;;8.02;7.32;;;;;;;;;;5092198;28;19916;-79
2022/08/11 00:51:23;;;;;;;8.82;8.02;;;;;;;;;;5092523;28;20032;-80
2022/08/11 00:53:49;;;;;;;8.77;8.02;;;;;;;;;;5092469;28;20494;-80
2022/08/11 00:56:34;;;;;;;8.02;7.32;;;;;;;;;;5092248;28;20032;-79
2022/08/11 00:59:19;;;;;;;8.73;7.90;;;;;;;;;;5092316;28;20108;-81
2022/08/11 01:02:04;;;;;;;7.60;6.90;;;;;;;;;;5092208;28;20020;-79
2022/08/11 01:04:49;;;;;;;9.13;8.23;;;;;;;;;;5091073;28;20020;-79
2022/08/11 01:07:18;;;;;;;8.02;7.25;;;;;;;;;;5092047;28;20020;-80
2022/08/11 01:10:03;;;;;;;8.27;7.50;;;;;;;;;;5096238;28;20119;-78
2022/08/11 01:12:32;;;;;;;8.65;7.72;;;;;;;;;;5096498;28;20024;-78
2022/08/11 01:14:58;;;;;;;8.27;7.45;;;;;;;;;;5096212;28;20024;-79
2022/08/11 01:17:43;;;;;;;8.57;7.68;;;;;;;;;;5096054;28;20028;-79
2022/08/11 01:20:15;;;;;;;9.63;7.78;;;;;;;;;;5096208;28;20103;-79
2022/08/11 01:22:59;;;;;;;7.57;6.82;;;;;;;;;;5096347;28;20020;-78
2022/08/11 01:25:44;;;;;;;8.48;7.68;;;;;;;;;;5096015;28;20050;-78
2022/08/11 01:28:09;;;;;;;;;;;;;;;;;;5096379;28;20046;-78
2022/08/11 01:30:48;;;;;;;8.55;7.03;;;;;;;;;;5095916;28;20432;-78
2022/08/11 01:33:33;;;;;;;7.55;6.85;;;;;;;;;;5095822;28;20058;-78
2022/08/11 01:36:17;;;;;;;8.55;7.65;;;;;;;;;;5095553;28;20047;-79
2022/08/11 01:38:51;;;;;;;8.95;7.13;;;;;;;;;;5095758;28;20024;-79
2022/08/11 01:44:36;;;;;;;8.80;7.95;;;;;;;;;;5095975;28;20035;-79
2022/08/11 01:47:49;;;;;;;8.18;7.00;;;;;;;;;;5095473;28;20112;-78
2022/08/11 01:50:12;;;;;;;8.13;7.43;;;;;;;;;;5095585;28;20027;-77
2022/08/11 01:52:48;;;;;;;7.03;6.40;;;;;;;;;;5095712;28;20035;-80
2022/08/11 01:55:32;;;;;;;8.55;7.75;;;;;;;;;;5095214;28;20031;-79
2022/08/11 01:57:59;;;;;;;8.25;7.43;;;;;;;;;;5095418;28;20038;-77
2022/08/11 02:00:29;;;;;;;9.10;7.45;;;;;;;;;;5095675;28;20436;-80
2022/08/11 02:03:09;;;;;;;8.50;7.65;;;;;;;;;;5095204;28;20028;-79
2022/08/11 02:06:00;;;;;;;7.63;6.93;;;;;;;;;;5095379;28;20024;-79
2022/08/11 02:08:44;;;;;;;7.57;6.95;;;;;;;;;;5093788;28;20483;-78
2022/08/11 02:11:32;;;;;;;7.50;6.80;;;;;;;;;;5095250;28;20036;-80
2022/08/11 02:14:01;;;;;;;7.07;6.38;;;;;;;;;;5094454;28;20024;-79
2022/08/11 02:16:47;;;;;;;8.50;7.70;;;;;;;;;;5095038;28;20028;-79
2022/08/11 02:25:08;;;;;;;8.13;7.20;;;;;;;;;;5095359;28;20081;-79
2022/08/11 02:27:47;;;;;;;8.10;7.30;;;;;;;;;;5094682;28;20113;-80
2022/08/11 02:30:20;;;;;;;7.72;6.93;;;;;;;;;;5094946;28;20479;-78
2022/08/11 02:35:31;;;;;;;;;;;;;;;;;;5094971;28;20506;-78
2022/08/11 02:38:16;;;;;;;7.57;6.50;;;;;;;;;;5094727;28;19908;-79
2022/08/11 02:40:42;;;;;;;7.40;6.70;;;;;;;;;;5094483;28;20036;-79
2022/08/11 02:43:27;;;;;;;7.63;6.93;;;;;;;;;;5094347;28;20103;-79
2022/08/11 02:46:12;;;;;;;6.78;6.18;;;;;;;;;;5094344;28;20055;-79
2022/08/11 02:51:52;;;;;;;6.60;5.93;;;;;;;;;;5094191;28;20031;-80
2022/08/11 02:54:21;;;;;;;7.00;6.05;;;;;;;;;;5093850;28;20467;-79
2022/08/11 02:57:12;;;;;;;7.80;7.10;;;;;;;;;;5094301;28;20028;-78
2022/08/11 02:59:49;;;;;;;7.75;7.03;;;;;;;;;;5094054;28;20051;-81
2022/08/11 03:02:15;;;;;;;6.82;6.13;;;;;;;;;;5094334;28;20451;-78
2022/08/11 03:05:00;;;;;;;7.32;6.63;;;;;;;;;;5093957;28;20020;-79
2022/08/11 03:07:44;;;;;;;7.40;6.80;;;;;;;;;;5093997;28;20027;-80
2022/08/11 03:10:29;;;;;;;6.75;6.15;;;;;;;;;;5093747;28;20467;-81
2022/08/11 03:19:02;;;;;;;7.68;6.97;;;;;;;;;;5093966;28;20074;-80
2022/08/11 03:21:55;;;;;;;7.57;6.80;;;;;;;;;;5093987;28;20097;-77
2022/08/11 03:24:33;;;;;;;8.50;6.70;;;;;;;;;;5093891;28;20032;-78
2022/08/11 03:27:18;;;;;;;6.90;6.13;;;;;;;;;;5093832;28;20035;-80
2022/08/11 03:29:50;;;;;;;8.50;7.32;;;;;;;;;;5093772;28;20494;-78
2022/08/11 03:32:34;;;;;;;8.40;7.53;;;;;;;;;;5093443;28;20414;-78
2022/08/11 03:35:02;;;;;;;7.22;6.53;;;;;;;;;;5093417;28;20093;-78
2022/08/11 03:43:29;;;;;;;7.35;6.18;;;;;;;;;;5089346;28;20031;-78
2022/08/11 03:46:14;;;;;;;7.25;6.28;;;;;;;;;;5086322;28;20036;-78
2022/08/11 03:48:46;;;;;;;7.00;6.30;;;;;;;;;;5088685;28;20075;-79
2022/08/11 03:51:22;;;;;;;6.93;6.30;;;;;;;;;;5073176;28;20082;-78
2022/08/11 03:54:08;;;;;;;6.25;5.65;;;;;;;;;;5072837;28;20028;-77
2022/08/11 03:56:37;;;;;;;7.70;7.00;;;;;;;;;;5072879;28;20032;-79
2022/08/11 03:59:22;;;;;;;7.20;6.50;;;;;;;;;;5072876;28;20025;-78
2022/08/11 04:02:07;;;;;;;6.40;5.80;;;;;;;;;;5073009;28;20020;-79
2022/08/11 04:04:52;;;;;;;8.38;6.05;;;;;;;;;;5072839;28;20035;-79
2022/08/11 04:07:37;;;;;;;7.18;5.65;;;;;;;;;;5072756;28;20038;-80
2022/08/11 04:10:03;;;;;;;5.95;5.35;;;;;;;;;;5072704;28;20082;-78
2022/08/11 04:12:48;;;;;;;6.57;5.95;;;;;;;;;;5072463;28;20387;-80
2022/08/11 04:18:04;;;;;;;9.70;6.47;;;;;;;;;;5072463;28;19958;-80
2022/08/11 04:20:40;;;;;;;5.90;5.32;;;;;;;;;;5073090;28;20265;-83
2022/08/11 04:23:25;;;;;;;6.07;5.47;;;;;;;;;;5092606;28;20028;-79
2022/08/11 04:26:05;;;;;;;6.60;5.75;;;;;;;;;;5092854;28;20078;-77
2022/08/11 04:28:40;;;;;;;6.20;5.60;;;;;;;;;;5092706;28;20016;-79
2022/08/11 04:31:12;;;;;;;7.63;6.82;;;;;;;;;;5092277;28;20085;-79
2022/08/11 04:33:44;;;;;;;7.95;6.38;;;;;;;;;;5092678;28;20124;-78
2022/08/11 04:37:31;;;;;;;5.95;5.30;;;;;;;;;;5092300;28;20110;-78
2022/08/11 04:39:18;;;;;;;5.72;5.20;;;;;;;;;;5092402;28;20062;-77
2022/08/11 04:45:09;;;;;;;5.78;4.65;;;;;;;;;;5092592;28;20494;-78
2022/08/11 05:02:25;;;;;;;6.05;4.95;;;;;;;;;;5089016;28;20094;-80
2022/08/11 05:08:11;;;;;;;7.30;4.75;;;;;;;;;;5084937;28;20040;-81
2022/08/11 05:10:46;;;;;;;5.43;4.85;;;;;;;;;;5091980;28;20467;-79
2022/08/11 05:36:17;;;;;;;11.85;5.28;;;;;;;;;;5094537;28;20054;-80
2022/08/11 05:58:09;;;;;;;5.25;4.50;;;;;;;;;;5085213;28;20093;-79
2022/08/11 06:00:43;;;;;;;4.85;4.45;;;;;;;;;;5094976;28;20027;-79
2022/08/11 06:03:09;;;;;;;11.85;10.75;;;;;;;;;;5095084;28;20421;-84
2022/08/11 06:05:40;;;;;;;6.22;4.93;;;;;;;;;;5076009;28;20380;-80
2022/08/11 06:08:07;;;;;;;5.00;4.50;;;;;;;;;;5074738;28;20060;-79
2022/08/11 06:10:34;;;;;;;4.88;4.40;;;;;;;;;;5074600;28;20036;-78
2022/08/11 06:13:01;;;;;;;5.22;4.38;;;;;;;;;;5074802;28;20103;-80
2022/08/11 06:15:28;;;;;;;7.25;5.63;;;;;;;;;;5083383;28;20028;-79
2022/08/11 06:17:54;;;;;;;6.07;4.47;;;;;;;;;;5079472;28;20059;-82
2022/08/11 06:20:23;;;;;;;5.60;4.60;;;;;;;;;;5075670;28;20032;-77
2022/08/11 06:22:56;;;;;;;5.32;4.75;;;;;;;;;;5074720;28;20032;-79
2022/08/11 06:25:23;;;;;;;4.28;3.88;;;;;;;;;;5074894;28;20040;-80
2022/08/11 06:27:57;;;;;;;5.00;4.15;;;;;;;;;;5074864;28;20029;-83
2022/08/11 06:30:52;;;;;;;6.70;5.07;;;;;;;;;;5088171;28;20028;-79
2022/08/11 06:33:21;;;;;;;4.00;3.58;;;;;;;;;;5070738;28;20036;-83
2022/08/11 06:35:59;;;;;;;4.15;3.75;;;;;;;;;;5078170;28;20032;-79
2022/08/11 06:38:48;;;;;;;4.63;3.75;;;;;;;;;;5082999;28;20505;-81
2022/08/11 06:41:33;;;;;;;5.05;4.57;;;;;;;;;;5092000;28;20058;-81
2022/08/11 06:44:00;;;;;;;5.60;3.97;;;;;;;;;;5110397;28;20780;-82
2022/08/11 06:46:30;;;;;;;8.13;4.75;;;;;;;;;;5110761;28;20447;-81
2022/08/11 06:48:56;;;;;;;4.32;3.92;;;;;;;;;;5089328;28;20031;-81
2022/08/11 06:51:23;;;;;;;6.18;3.88;;;;;;;;;;5094305;28;20032;-80
2022/08/11 06:53:57;;;;;;;6.47;4.20;;;;;;;;;;5092151;28;20089;-82
2022/08/11 07:01:54;;;;;;;5.15;3.92;;;;;;;;;;5090239;28;20122;-83
2022/08/11 07:04:27;;;;;;;4.43;3.97;;;;;;;;;;5083172;28;20024;-79
2022/08/11 07:15:40;;;;;;;5.82;4.55;;;;;;;;;;5086251;28;20034;-79
2022/08/11 07:29:10;;;;;;;4.70;3.60;;;;;;;;;;5079867;28;20074;-79
2022/08/11 07:31:40;;;;;;;4.15;3.35;;;;;;;;;;5089171;28;20101;-79
2022/08/11 07:34:12;;;;;;;4.47;3.90;;;;;;;;;;5087649;28;20115;-79
2022/08/11 07:36:44;;;;;;;4.75;3.83;;;;;;;;;;5076422;28;20089;-79
2022/08/11 07:39:15;;;;;;;5.95;3.65;;;;;;;;;;5093273;28;20750;-82
2022/08/11 07:41:41;;;;;;;4.32;3.70;;;;;;;;;;5112018;28;20038;-80
2022/08/11 07:44:12;;;;;;;4.65;3.40;;;;;;;;;;5092289;27;20078;-81
2022/08/11 07:55:00;;;;;;;5.95;4.20;;;;;;;;;;5083141;28;20042;-80
2022/08/11 08:19:30;;;;;;;4.63;3.75;;;;;;;;;;5102076;28;20038;-78
2022/08/11 08:21:58;;;;;;;4.28;3.60;;;;;;;;;;5102862;28;20031;-77
2022/08/11 08:24:24;;;;;;;5.47;3.45;;;;;;;;;;5103416;28;20019;-78
2022/08/11 08:27:00;;;;;;;6.13;3.35;;;;;;;;;;5097983;28;20435;-81
2022/08/11 08:32:12;;;;;;;3.25;3.03;;;;;;;;;;5075402;28;20036;-83
2022/08/11 08:34:42;;;;;;;6.80;3.05;;;;;;;;;;5083527;28;20391;-80
2022/08/11 08:37:08;;;;;;;4.55;3.45;;;;;;;;;;5081109;28;20115;-81
2022/08/11 08:39:36;;;;;;;3.97;3.10;;;;;;;;;;5085750;28;20028;-83
2022/08/11 08:42:06;;;;;;;3.85;2.83;;;;;;;;;;5092631;28;20032;-84
2022/08/11 08:44:34;;;;;;;3.50;3.03;;;;;;;;;;5092154;28;20089;-80
2022/08/11 08:47:04;;;;;;;2.83;2.33;;;;;;;;;;5087786;28;20109;-83
2022/08/11 08:49:35;;;;;;;3.58;3.20;;;;;;;;;;5080529;28;20036;-82
2022/08/11 08:52:05;;;;;;;4.13;2.92;;;;;;;;;;5082791;28;20029;-83
2022/08/11 08:54:38;;;;;;;3.40;2.75;;;;;;;;;;5078309;28;20030;-78
2022/08/11 08:57:05;;;;;;;3.10;2.88;;;;;;;;;;5079961;28;20029;-79
2022/08/11 08:59:33;;;;;;;3.22;2.55;;;;;;;;;;5072166;28;20025;-79
2022/08/11 09:02:01;;;;;;;3.83;3.38;;;;;;;;;;5073231;28;20051;-82
2022/08/11 09:04:28;;;;;;;3.08;2.30;;;;;;;;;;5080981;28;20029;-82
2022/08/11 09:06:55;;;;;;;2.72;2.00;;;;;;;;;;5073335;28;20074;-80
2022/08/11 09:09:22;;;;;;;2.55;2.35;;;;;;;;;;5078416;28;20028;-77
2022/08/11 09:11:54;;;;;;;2.83;1.80;;;;;;;;;;5076700;28;20033;-79
2022/08/11 09:14:59;;;;;;;3.33;1.90;;;;;;;;;;5087080;28;20075;-81
2022/08/11 09:17:11;;;;;;;4.50;2.47;;;;;;;;;;5071262;28;20045;-81
2022/08/11 09:19:37;;;;;;;15.63;4.00;;;;;;;;;;5072903;28;20017;-80
2022/08/11 09:27:34;;;;;;;4.40;1.63;;;;;;;;;;5079856;28;20082;-80
2022/08/11 09:30:01;;;;;;;4.07;1.60;;;;;;;;;;5086737;28;20031;-80
2022/08/11 09:32:30;;;;;;;3.00;1.77;;;;;;;;;;5096010;28;20146;-81
2022/08/11 09:34:57;;;;;;;2.42;1.77;;;;;;;;;;5104189;28;20119;-79
2022/08/11 09:45:39;;;;;;;2.65;1.80;;;;;;;;;;5080927;28;20036;-82
2022/08/11 09:48:06;;;;;;;4.38;2.08;;;;;;;;;;5090097;28;20050;-80
2022/08/11 09:50:33;;;;;;;3.33;1.23;;;;;;;;;;5111791;28;20111;-79
2022/08/11 09:53:05;;;;;;;2.97;1.60;;;;;;;;;;5101873;28;20027;-80
2022/08/11 09:55:32;;;;;;;1.67;0.90;;;;;;;;;;5103897;28;20051;-81
2022/08/11 10:00:48;;;;;;;3.70;1.33;;;;;;;;;;5086951;28;20059;-84
2022/08/11 10:03:17;;;;;;;3.20;1.60;;;;;;;;;;5084849;28;20027;-75
2022/08/11 10:08:35;;;;;;;2.15;1.30;;;;;;;;;;5102365;28;20100;-86
2022/08/11 10:11:01;;;;;;;3.25;2.38;;;;;;;;;;5102739;28;20386;-79
2022/08/11 10:15:32;;;;;;;4.43;4.03;;;;;;;;;;5084365;28;20047;-82
2022/08/11 10:16:18;;;;;;;2.33;2.13;;;;;;;;;;5088261;28;20083;-83
2022/08/11 10:18:51;;;;;;;6.75;1.75;;;;;;;;;;5083028;28;20761;-81
2022/08/11 10:21:29;;;;;;;2.33;1.90;;;;;;;;;;5086308;28;20033;-79
2022/08/11 10:35:12;;;;;;;2.92;1.52;;;;;;;;;;5076345;28;20090;-82
2022/08/11 10:37:39;;;;;;;2.67;1.65;;;;;;;;;;5095972;28;20039;-80
2022/08/11 10:40:06;;;;;;;2.53;2.03;;;;;;;;;;5098824;28;20023;-79
2022/08/11 10:48:03;;;;;;;3.72;1.50;;;;;;;;;;5073954;28;20063;-80
2022/08/11 10:58:50;;;;;;;6.30;5.78;;;;;;;;;;5078071;28;20567;-80
2022/08/11 11:01:34;;;;;;;3.58;3.25;;;;;;;;;;5092019;28;20079;-81
2022/08/11 11:04:02;;;;;;;3.70;2.78;;;;;;;;;;5093238;28;20394;-83
2022/08/11 11:06:47;;;;;;;3.60;2.30;;;;;;;;;;5083842;28;20039;-84
2022/08/11 11:09:25;;;;;;;3.30;2.40;;;;;;;;;;5076483;28;20033;-79
2022/08/11 11:20:16;;;;;;;2.42;2.22;;;;;;;;;;5101703;28;20081;-84
2022/08/11 11:22:47;;;;;;;2.78;2.08;;;;;;;;;;5098752;28;20051;-82
2022/08/11 11:25:31;;;;;;;2.13;1.70;;;;;;;;;;5087236;28;20084;-81
2022/08/11 11:28:16;;;;;;;2.50;2.28;;;;;;;;;;5096113;28;20023;-80
2022/08/11 11:30:50;;;;;;;2.22;1.98;;;;;;;;;;5102522;28;20039;-80
2022/08/11 11:33:37;;;;;;;3.15;2.38;;;;;;;;;;5101381;28;20486;-80
2022/08/11 11:36:06;;;;;;;3.88;2.78;;;;;;;;;;5068551;28;20123;-81
2022/08/11 11:38:32;;;;;;;3.20;2.47;;;;;;;;;;5076985;28;20078;-79
2022/08/11 11:43:45;;;;;;;2.38;2.03;;;;;;;;;;5077998;28;20092;-82
2022/08/11 11:46:12;;;;;;;2.42;2.10;;;;;;;;;;5086180;28;20024;-82
2022/08/11 11:48:44;;;;;;;3.10;2.67;;;;;;;;;;5097660;28;20039;-82
2022/08/11 11:51:14;;;;;;;36.00;15.02;;;;;;;;;;5081506;28;20031;-81
2022/08/11 11:53:44;;;;;;;103.93;42.13;;;;;;;;;;5071801;28;20032;-80
2022/08/11 11:56:11;;;;;;;59.22;25.33;;;;;;;;;;5072643;28;20044;-84
2022/08/11 12:01:24;;;;;;;6.82;6.13;;;;;;;;;;5074599;28;20035;-82
2022/08/11 12:03:51;;;;;;;8.70;7.63;;;;;;;;;;5071659;28;20030;-83
2022/08/11 12:06:19;;;;;;;2.40;2.10;;;;;;;;;;5085389;28;20107;-83
2022/08/11 12:08:47;;;;;;;4.68;2.10;;;;;;;;;;5085657;28;20049;-82
2022/08/11 12:14:04;;;;;;;4.32;2.80;;;;;;;;;;5069695;28;20482;-79
2022/08/11 12:16:31;;;;;;;4.80;2.45;;;;;;;;;;5080343;28;20044;-77
2022/08/11 12:18:58;;;;;;;5.00;3.03;;;;;;;;;;5081593;28;20047;-78
2022/08/11 12:21:25;;;;;;;2.50;1.90;;;;;;;;;;5079888;28;20027;-80
2022/08/11 12:29:26;;;;;;;6.88;2.28;;;;;;;;;;5092154;28;20120;-78
2022/08/11 12:31:54;;;;;;;3.17;1.90;;;;;;;;;;5083665;28;20544;-78
2022/08/11 12:34:20;;;;;;;2.70;2.00;;;;;;;;;;5071632;28;20930;-80
2022/08/11 12:36:49;;;;;;;4.18;2.40;;;;;;;;;;5090510;28;20384;-77
2022/08/11 12:45:26;;;;;;;3.55;2.25;;;;;;;;;;5085792;28;20036;-77
2022/08/11 12:53:20;;;;;;;3.95;2.00;;;;;;;;;;5090335;28;20082;-83
2022/08/11 12:58:31;;;;;;;3.47;2.17;;;;;;;;;;5082744;28;20047;-80
2022/08/11 13:06:27;;;;;;;2.05;1.85;;;;;;;;;;5075947;28;20035;-79
2022/08/11 13:08:56;;;;;;;2.30;1.90;;;;;;;;;;5076213;28;20491;-81
2022/08/11 13:14:08;;;;;;;3.38;2.38;;;;;;;;;;5094045;28;20121;-80
2022/08/11 13:17:19;;;;;;;3.75;2.53;;;;;;;;;;5095844;28;20039;-79
2022/08/11 13:19:25;;;;;;;2.28;1.90;;;;;;;;;;5093118;28;20411;-85
2022/08/11 13:21:52;;;;;;;3.08;1.83;;;;;;;;;;5085031;28;20397;-82
2022/08/11 13:24:18;;;;;;;2.55;2.00;;;;;;;;;;5079067;28;20067;-82
2022/08/11 13:26:45;;;;;;;2.50;1.98;;;;;;;;;;5075958;28;20074;-79
2022/08/11 13:29:13;;;;;;;2.45;1.50;;;;;;;;;;5094314;28;20024;-82
2022/08/11 13:31:41;;;;;;;2.42;2.22;;;;;;;;;;5096738;28;20039;-80
2022/08/11 13:34:08;;;;;;;2.85;1.80;;;;;;;;;;5095094;28;20024;-81
2022/08/11 13:36:35;;;;;;;3.50;2.85;;;;;;;;;;5095667;28;20040;-84
2022/08/11 13:39:02;;;;;;;3.38;1.80;;;;;;;;;;5078241;28;20032;-81
2022/08/11 13:41:38;;;;;;;1.85;1.75;;;;;;;;;;5075184;28;20032;-80
2022/08/11 13:44:05;;;;;;;2.22;1.80;;;;;;;;;;5084465;28;20483;-80
2022/08/11 13:46:32;;;;;;;6.63;2.08;;;;;;;;;;5083382;28;20048;-80
2022/08/11 13:48:59;;;;;;;4.47;2.22;;;;;;;;;;5087416;28;20020;-81
2022/08/11 13:51:35;;;;;;;3.60;3.20;;;;;;;;;;5095368;28;20031;-81
2022/08/11 13:54:06;;;;;;;3.33;2.00;;;;;;;;;;5095242;28;20054;-80
2022/08/11 13:56:33;;;;;;;3.42;2.00;;;;;;;;;;5076892;28;20067;-83
2022/08/11 13:59:01;;;;;;;2.30;2.10;;;;;;;;;;5087083;28;20043;-82
2022/08/11 14:01:32;;;;;;;2.70;2.22;;;;;;;;;;5074830;28;20024;-82
2022/08/11 14:04:18;;;;;;;2.45;1.90;;;;;;;;;;5084538;28;20035;-80
2022/08/11 14:06:45;;;;;;;2.25;2.05;;;;;;;;;;5081362;28;20089;-81
2022/08/11 14:09:15;;;;;;;4.68;2.00;;;;;;;;;;5095045;28;20028;-80
2022/08/11 14:14:32;;;;;;;2.55;2.35;;;;;;;;;;5088316;28;20066;-82
2022/08/11 14:17:01;;;;;;;2.22;1.83;;;;;;;;;;5079013;28;20037;-80
2022/08/11 14:19:27;;;;;;;3.25;1.98;;;;;;;;;;5088440;28;20039;-79
2022/08/11 14:22:06;;;;;;;3.35;2.05;;;;;;;;;;5091803;28;20506;-80
2022/08/11 14:24:33;;;;;;;3.47;2.17;;;;;;;;;;5082877;28;20028;-82
2022/08/11 14:27:00;;;;;;;2.25;2.05;;;;;;;;;;5094902;28;20036;-81
2022/08/11 14:29:28;;;;;;;2.60;2.00;;;;;;;;;;5094704;28;20133;-83
2022/08/11 14:31:56;;;;;;;3.03;2.03;;;;;;;;;;5093536;28;20398;-81
2022/08/11 14:34:28;;;;;;;1.95;1.75;;;;;;;;;;5094914;28;20107;-80
2022/08/11 14:36:59;;;;;;;2.53;1.83;;;;;;;;;;5078905;28;20032;-81
2022/08/11 14:39:26;;;;;;;2.42;2.03;;;;;;;;;;5074586;28;20103;-80
2022/08/11 14:47:22;;;;;;;5.20;3.80;;;;;;;;;;5075074;28;20055;-78
2022/08/11 14:49:52;;;;;;;2.55;2.33;;;;;;;;;;5074497;28;20086;-80
2022/08/11 14:52:19;;;;;;;3.33;2.13;;;;;;;;;;5074187;28;20028;-80
2022/08/11 14:57:35;;;;;;;4.03;2.30;;;;;;;;;;5074049;28;20044;-80
2022/08/11 15:00:02;;;;;;;3.20;1.92;;;;;;;;;;5074001;28;20024;-79
2022/08/11 15:05:14;;;;;;;2.65;2.45;;;;;;;;;;5074069;28;20031;-80
2022/08/11 15:07:41;;;;;;;3.10;2.78;;;;;;;;;;5074689;28;20031;-83
2022/08/11 15:10:08;;;;;;;6.25;2.80;;;;;;;;;;5082319;28;20031;-80
2022/08/11 15:12:35;;;;;;;3.45;2.17;;;;;;;;;;5094262;28;20456;-80
2022/08/11 15:17:49;;;;;;;2.40;2.15;;;;;;;;;;5074684;28;20127;-79
2022/08/11 15:26:00;;;;;;;8.15;4.47;;;;;;;;;;5074333;28;20104;-83
2022/08/11 15:39:34;;;;;;;3.10;1.98;;;;;;;;;;5081435;28;20097;-83
2022/08/11 15:47:40;;;;;;;2.83;2.63;;;;;;;;;;5076332;28;20055;-78
2022/08/11 15:50:07;;;;;;;3.13;2.83;;;;;;;;;;5080374;28;20472;-82
2022/08/11 15:52:37;;;;;;;3.08;2.60;;;;;;;;;;5079643;28;20755;-84
2022/08/11 15:55:05;;;;;;;4.00;3.60;;;;;;;;;;5080261;28;20082;-80
2022/08/11 16:05:49;;;;;;;2.83;2.45;;;;;;;;;;5092362;28;20035;-80
2022/08/11 16:08:17;;;;;;;4.65;2.83;;;;;;;;;;5077628;28;20395;-82
2022/08/11 16:10:44;;;;;;;3.28;2.97;;;;;;;;;;5071396;28;20089;-76
2022/08/11 16:18:39;;;;;;;3.65;2.92;;;;;;;;;;5078932;28;20080;-81
2022/08/11 16:21:07;;;;;;;3.30;3.00;;;;;;;;;;5072652;28;20036;-80
2022/08/11 16:23:33;;;;;;;3.22;2.60;;;;;;;;;;5080840;28;20032;-82
2022/08/11 16:26:03;;;;;;;4.43;2.65;;;;;;;;;;5082077;28;20032;-85
2022/08/11 16:28:30;;;;;;;3.60;2.83;;;;;;;;;;5072627;28;20036;-80
2022/08/11 16:30:57;;;;;;;3.03;2.70;;;;;;;;;;5073632;28;20490;-81
2022/08/11 16:33:25;;;;;;;2.63;2.10;;;;;;;;;;5082931;28;20053;-78
2022/08/11 16:38:37;;;;;;;2.85;2.47;;;;;;;;;;5071601;28;20035;-81
2022/08/11 16:41:13;;;;;;;2.58;2.38;;;;;;;;;;5075959;28;20031;-82
2022/08/11 16:49:13;;;;;;;3.40;3.10;;;;;;;;;;5085093;28;20039;-80
2022/08/11 16:51:40;;;;;;;3.30;2.92;;;;;;;;;;5078882;28;20025;-82
2022/08/11 16:54:06;;;;;;;2.58;2.25;;;;;;;;;;5084239;28;20028;-80
2022/08/11 16:56:51;;;;;;;7.28;2.85;;;;;;;;;;5081685;28;20087;-81
2022/08/11 16:59:22;;;;;;;2.85;2.42;;;;;;;;;;5074808;28;20066;-82
2022/08/11 17:01:51;;;;;;;3.15;2.78;;;;;;;;;;5091287;28;20522;-79
2022/08/11 17:13:07;;;;;;;3.13;2.45;;;;;;;;;;5083741;28;20056;-78
2022/08/11 17:21:04;;;;;;;3.15;2.30;;;;;;;;;;5092224;28;20127;-83
2022/08/11 17:23:46;;;;;;;3.38;2.67;;;;;;;;;;5092124;28;20024;-81
2022/08/11 17:26:17;;;;;;;2.97;2.35;;;;;;;;;;5086741;28;20056;-80
2022/08/11 17:28:44;;;;;;;4.85;2.60;;;;;;;;;;5075100;28;20040;-82
2022/08/11 17:36:43;;;;;;;3.75;2.40;;;;;;;;;;5108861;28;20100;-83
2022/08/11 17:39:10;;;;;;;3.22;2.83;;;;;;;;;;5091914;28;20360;-81
2022/08/11 17:49:52;;;;;;;4.30;3.13;;;;;;;;;;5072637;28;20039;-84
2022/08/11 18:00:34;;;;;;;3.55;3.05;;;;;;;;;;5075244;28;20043;-82
2022/08/11 18:05:47;;;;;;;5.47;3.03;;;;;;;;;;5079948;28;20043;-84
